Time;durP1;ratioP1;P1;durP2;ratioP2;P2;SDS_P1;SDS_P2;PMS_P1;PMS_P2;Temp;Humidity;BMP_temperature;BMP_pressure;BME280_temperature;BME280_humidity;BME280_pressure;Samples;Min_cycle;Max_cycle;Signal;HPM_P1;HPM_P2
2021/03/02 00:00:17;;;;;;;32.83;15.68;;;;;;;2.57;78.05;102203.78;5134418;27;20098;-71
2021/03/02 00:02:43;;;;;;;30.77;16.02;;;;;;;2.52;78.16;102207.28;5133962;27;20639;-71
2021/03/02 00:05:11;;;;;;;32.95;15.80;;;;;;;2.57;78.20;102205.53;5134345;27;20110;-71
2021/03/02 00:07:37;;;;;;;33.22;16.10;;;;;;;2.56;78.31;102207.28;5115555;27;20540;-72
2021/03/02 00:10:05;;;;;;;31.65;15.07;;;;;;;2.57;78.37;102202.91;5115782;27;20459;-72
2021/03/02 00:12:32;;;;;;;35.40;16.15;;;;;;;2.57;78.02;102206.41;5134103;27;20023;-72
2021/03/02 00:14:57;;;;;;;35.33;16.77;;;;;;;2.48;77.63;102200.22;5134367;27;20474;-72
2021/03/02 00:17:27;;;;;;;33.42;17.25;;;;;;;2.45;78.11;102202.84;5115879;27;20091;-72
2021/03/02 00:20:07;;;;;;;32.80;15.35;;;;;;;2.49;78.13;102192.31;5134224;27;20027;-76
2021/03/02 00:22:38;;;;;;;33.22;16.60;;;;;;;2.52;78.38;102194.13;5135094;27;20034;-77
2021/03/02 00:25:05;;;;;;;34.45;17.10;;;;;;;2.47;77.94;102196.72;5134820;27;20362;-76
2021/03/02 00:27:34;;;;;;;33.67;17.55;;;;;;;2.48;78.01;102197.59;5115750;28;20419;-75
2021/03/02 00:30:01;;;;;;;33.88;16.77;;;;;;;2.42;78.34;102194.94;5115530;28;20106;-75
2021/03/02 00:32:27;;;;;;;36.00;15.93;;;;;;;2.45;78.48;102194.97;5133986;28;20465;-74
2021/03/02 00:34:52;;;;;;;32.42;16.15;;;;;;;2.49;78.69;102191.44;5098287;28;20031;-75
2021/03/02 00:37:18;;;;;;;39.65;17.70;;;;;;;2.44;78.04;102193.19;5115671;28;20469;-72
2021/03/02 00:39:43;;;;;;;36.85;18.60;;;;;;;2.39;78.26;102198.44;5098325;27;20128;-72
2021/03/02 00:42:09;;;;;;;38.13;18.88;;;;;;;2.34;77.82;102188.75;5115660;28;20035;-72
2021/03/02 00:44:35;;;;;;;38.53;19.70;;;;;;;2.25;77.94;102189.59;5133633;28;20023;-74
2021/03/02 00:47:01;;;;;;;39.67;19.13;;;;;;;2.23;77.76;102186.09;5133971;28;20465;-72
2021/03/02 00:49:26;;;;;;;43.33;20.48;;;;;;;2.27;77.41;102177.31;5133753;27;20107;-74
2021/03/02 00:51:52;;;;;;;45.00;20.05;;;;;;;2.12;78.12;102196.53;5098344;28;20163;-74
2021/03/02 00:54:18;;;;;;;41.78;20.58;;;;;;;2.05;78.92;102186.88;5133723;28;20024;-73
2021/03/02 00:56:45;;;;;;;38.97;20.45;;;;;;;2.00;78.91;102191.22;5133662;28;20042;-74
2021/03/02 00:59:10;;;;;;;45.33;21.27;;;;;;;2.07;79.13;102192.13;5133588;28;20498;-73
2021/03/02 01:01:35;;;;;;;47.72;21.70;;;;;;;2.09;78.84;102188.63;5098114;28;20057;-74
2021/03/02 01:04:01;;;;;;;49.05;22.13;;;;;;;2.24;77.58;102188.72;5133557;28;20035;-71
2021/03/02 01:06:26;;;;;;;53.78;22.88;;;;;;;2.14;77.33;102180.78;5136564;27;20047;-70
2021/03/02 01:08:52;;;;;;;51.90;24.23;;;;;;;2.20;77.95;102180.78;5137313;27;20031;-71
2021/03/02 01:11:17;;;;;;;54.00;22.38;;;;;;;2.28;77.96;102173.81;5137605;27;20096;-71
2021/03/02 01:13:43;;;;;;;48.88;22.40;;;;;;;2.34;76.99;102175.59;5120769;27;20027;-72
2021/03/02 01:16:09;;;;;;;47.30;22.63;;;;;;;2.18;77.46;102178.16;5153192;27;20076;-73
2021/03/02 01:18:35;;;;;;;49.00;23.13;;;;;;;2.06;78.53;102177.22;5153069;27;20500;-72
2021/03/02 01:21:00;;;;;;;43.28;21.38;;;;;;;2.06;78.75;102171.94;5150485;27;20114;-71
2021/03/02 01:23:26;;;;;;;43.83;20.38;;;;;;;2.20;78.90;102170.25;5116358;27;20027;-72
2021/03/02 01:25:51;;;;;;;41.47;19.45;;;;;;;2.32;78.62;102164.16;5145822;27;20031;-72
2021/03/02 01:28:17;;;;;;;41.22;19.77;;;;;;;2.26;78.50;102159.75;5145493;27;20042;-72
2021/03/02 01:30:42;;;;;;;42.38;19.73;;;;;;;2.18;78.12;102164.97;5138010;27;20087;-70
2021/03/02 01:33:08;;;;;;;45.30;20.58;;;;;;;2.12;78.40;102158.78;5137495;27;20512;-71
2021/03/02 01:35:34;;;;;;;43.78;20.20;;;;;;;1.87;78.40;102148.16;5137213;27;20034;-72
2021/03/02 01:37:59;;;;;;;36.85;18.25;;;;;;;1.81;79.45;102163.03;5101705;27;20038;-72
2021/03/02 01:40:25;;;;;;;38.88;19.10;;;;;;;1.74;80.22;102154.22;5118613;27;20047;-72
2021/03/02 01:42:52;;;;;;;39.40;18.58;;;;;;;1.75;80.59;102156.00;5118477;27;20031;-71
2021/03/02 01:45:19;;;;;;;41.80;19.35;;;;;;;1.71;80.66;102144.53;5137024;27;20031;-72
2021/03/02 01:47:48;;;;;;;37.83;19.33;;;;;;;1.65;80.66;102149.78;5118372;27;20023;-72
2021/03/02 01:50:14;;;;;;;39.28;18.45;;;;;;;1.61;80.54;102147.09;5136793;27;20393;-74
2021/03/02 01:52:39;;;;;;;40.05;18.80;;;;;;;1.56;80.57;102149.72;5136586;27;20027;-75
2021/03/02 01:55:07;;;;;;;39.35;19.60;;;;;;;1.51;80.47;102153.16;5136925;27;20042;-72
2021/03/02 01:57:33;;;;;;;35.75;17.85;;;;;;;1.38;80.52;102145.19;5118564;27;20055;-73
2021/03/02 02:00:03;;;;;;;42.63;18.75;;;;;;;1.36;80.07;102146.94;5101140;27;20024;-73
2021/03/02 02:02:50;;;;;;;38.03;18.88;;;;;;;1.23;79.66;102124.03;5119240;27;20023;-75
2021/03/02 02:05:17;;;;;;;40.97;18.60;;;;;;;1.29;80.28;102145.13;5136580;27;20389;-71
2021/03/02 02:07:51;;;;;;;44.17;18.85;;;;;;;1.33;80.54;102136.38;5136396;27;20087;-71
2021/03/02 02:10:26;;;;;;;41.05;19.77;;;;;;;1.33;81.15;102141.63;5136522;27;20480;-71
2021/03/02 02:13:01;;;;;;;41.33;19.95;;;;;;;1.49;80.45;102134.75;5136326;27;20030;-72
2021/03/02 02:15:34;;;;;;;40.08;19.35;;;;;;;1.50;80.79;102140.91;5136388;27;20015;-71
2021/03/02 02:18:18;;;;;;;39.10;19.00;;;;;;;1.37;81.54;102150.47;5136366;27;20026;-71
2021/03/02 02:21:14;;;;;;;45.17;19.73;;;;;;;1.26;82.03;102142.47;5117639;27;20446;-71
2021/03/02 02:24:04;;;;;;;39.53;19.70;;;;;;;1.39;81.88;102146.97;5136428;27;20518;-70
2021/03/02 02:26:51;;;;;;;42.72;21.10;;;;;;;1.30;82.07;102140.75;5136362;27;20081;-71
2021/03/02 02:29:21;;;;;;;40.55;19.90;;;;;;;1.55;81.67;102142.69;5136274;27;20027;-72
2021/03/02 02:31:48;;;;;;;40.50;20.30;;;;;;;1.36;81.42;102148.69;5135893;27;20019;-72
2021/03/02 02:34:18;;;;;;;44.13;21.05;;;;;;;1.22;82.04;102150.31;5136014;27;20034;-71
2021/03/02 02:36:52;;;;;;;46.45;21.55;;;;;;;1.10;82.93;102149.34;5135795;27;20050;-73
2021/03/02 02:39:19;;;;;;;40.80;19.67;;;;;;;1.10;82.67;102146.72;5117540;27;20082;-75
2021/03/02 02:41:47;;;;;;;40.83;19.75;;;;;;;1.10;82.58;102151.97;5135674;27;20485;-74
2021/03/02 02:44:15;;;;;;;42.72;20.33;;;;;;;1.06;83.08;102134.44;5135874;27;20045;-74
2021/03/02 02:46:42;;;;;;;42.58;20.35;;;;;;;1.09;82.56;102152.84;5135770;27;20031;-73
2021/03/02 02:49:11;;;;;;;40.53;19.92;;;;;;;1.12;82.65;102151.97;5135924;27;20386;-74
2021/03/02 02:51:38;;;;;;;41.75;19.05;;;;;;;1.04;82.58;102151.91;5135783;27;20114;-74
2021/03/02 02:54:06;;;;;;;40.10;19.95;;;;;;;0.99;82.52;102147.50;5100125;27;20034;-74
2021/03/02 02:56:35;;;;;;;40.03;19.42;;;;;;;1.03;82.21;102152.78;5135771;27;20098;-73
2021/03/02 02:59:09;;;;;;;43.85;20.75;;;;;;;0.95;82.11;102162.34;5135245;27;20042;-73
2021/03/02 03:01:42;;;;;;;39.85;18.75;;;;;;;0.91;81.99;102151.78;5135506;27;20430;-74
2021/03/02 03:04:16;;;;;;;42.70;20.00;;;;;;;1.11;81.81;102153.72;5135400;27;20116;-74
2021/03/02 03:06:45;;;;;;;38.30;20.02;;;;;;;1.15;81.62;102147.63;5135508;27;20023;-75
2021/03/02 03:09:12;;;;;;;47.05;21.48;;;;;;;1.06;81.15;102152.84;5135279;27;20050;-72
2021/03/02 03:11:46;;;;;;;45.78;23.67;;;;;;;1.06;81.76;102157.19;5135306;27;20102;-73
2021/03/02 03:14:15;;;;;;;46.80;23.02;;;;;;;1.02;81.94;102150.16;5116829;27;20030;-71
2021/03/02 03:16:43;;;;;;;46.25;23.00;;;;;;;1.00;82.12;102142.25;5135279;27;20025;-72
2021/03/02 03:19:20;;;;;;;49.58;23.63;;;;;;;1.07;81.89;102157.22;5135266;27;20023;-71
2021/03/02 03:21:46;;;;;;;46.75;22.17;;;;;;;1.01;81.85;102149.25;5134930;27;20026;-76
2021/03/02 03:24:12;;;;;;;45.97;22.23;;;;;;;1.03;81.44;102154.53;5135138;27;20110;-76
2021/03/02 03:26:38;;;;;;;47.08;22.17;;;;;;;0.96;81.39;102156.22;5135049;27;20035;-73
2021/03/02 03:29:04;;;;;;;42.45;22.00;;;;;;;0.94;81.41;102155.31;5134228;27;20027;-75
2021/03/02 03:31:30;;;;;;;44.22;21.80;;;;;;;0.89;81.64;102157.03;5135040;27;20469;-73
2021/03/02 03:33:57;;;;;;;49.58;22.02;;;;;;;0.87;81.59;102158.78;5116183;27;20027;-74
2021/03/02 03:36:25;;;;;;;42.35;20.65;;;;;;;0.95;81.17;102159.72;5135181;27;20385;-74
2021/03/02 03:38:51;;;;;;;46.90;19.88;;;;;;;1.10;80.74;102157.22;5134444;27;20072;-73
2021/03/02 03:41:16;;;;;;;43.45;20.80;;;;;;;1.03;79.99;102157.16;5100896;27;20027;-73
2021/03/02 03:43:42;;;;;;;45.85;21.33;;;;;;;0.84;80.65;102153.47;5120520;27;20030;-73
2021/03/02 03:46:08;;;;;;;42.78;20.83;;;;;;;0.85;81.02;102144.72;5134708;27;20035;-73
2021/03/02 03:48:34;;;;;;;40.70;20.25;;;;;;;0.86;81.45;102149.09;5134471;27;20102;-74
2021/03/02 03:50:59;;;;;;;39.85;18.90;;;;;;;0.88;81.44;102147.41;5134444;27;20465;-73
2021/03/02 03:53:28;;;;;;;39.33;19.27;;;;;;;0.89;81.68;102153.53;5134603;27;20038;-74
2021/03/02 03:55:55;;;;;;;37.28;19.20;;;;;;;0.91;81.17;102147.41;5134126;27;20027;-75
2021/03/02 03:58:23;;;;;;;39.75;18.42;;;;;;;0.94;80.91;102147.44;5134321;27;20458;-73
2021/03/02 04:00:52;;;;;;;38.22;18.73;;;;;;;0.93;80.71;102140.44;5134171;27;20461;-71
2021/03/02 04:03:23;;;;;;;43.95;19.38;;;;;;;0.85;81.09;102147.34;5134397;27;20439;-73
2021/03/02 04:05:49;;;;;;;37.15;18.35;;;;;;;0.82;81.19;102148.22;5134024;27;20026;-72
2021/03/02 04:08:18;;;;;;;39.25;18.98;;;;;;;0.80;81.99;102146.44;5134344;27;20377;-71
2021/03/02 04:10:44;;;;;;;40.83;18.75;;;;;;;0.78;81.51;102145.56;5134218;27;20038;-72
2021/03/02 04:13:15;;;;;;;38.97;18.23;;;;;;;0.79;81.79;102139.44;5098693;27;20031;-73
2021/03/02 04:15:41;;;;;;;35.33;16.50;;;;;;;0.78;81.83;102148.19;5134247;27;20019;-72
2021/03/02 04:18:12;;;;;;;37.60;17.40;;;;;;;0.76;82.02;102148.13;5133869;27;20042;-73
2021/03/02 04:20:38;;;;;;;37.25;16.98;;;;;;;0.77;82.05;102147.28;5134068;27;20015;-72
2021/03/02 04:23:04;;;;;;;36.70;17.23;;;;;;;0.80;82.11;102143.81;5133955;27;20390;-72
2021/03/02 04:25:31;;;;;;;37.85;16.77;;;;;;;0.82;81.68;102142.06;5134439;27;20105;-73
2021/03/02 04:27:57;;;;;;;35.78;16.73;;;;;;;0.87;81.78;102150.91;5133730;27;20037;-73
2021/03/02 04:30:23;;;;;;;39.10;16.70;;;;;;;0.85;81.55;102149.97;5134078;27;20106;-73
2021/03/02 04:32:49;;;;;;;37.03;17.30;;;;;;;0.74;81.10;102122.72;5133983;27;20430;-76
2021/03/02 04:35:15;;;;;;;38.13;16.65;;;;;;;0.91;81.33;102141.28;5133994;28;20105;-72
2021/03/02 04:37:40;;;;;;;39.03;17.65;;;;;;;0.81;81.24;102135.06;5134096;28;20019;-73
2021/03/02 04:40:07;;;;;;;37.10;17.65;;;;;;;0.80;81.38;102133.31;5134424;27;20412;-76
2021/03/02 04:42:32;;;;;;;39.58;17.15;;;;;;;0.80;81.56;102138.56;5138464;27;20031;-73
2021/03/02 04:44:58;;;;;;;35.85;16.83;;;;;;;0.84;81.50;102145.59;5137986;27;20442;-73
2021/03/02 04:47:23;;;;;;;43.67;19.00;;;;;;;0.84;81.25;102137.72;5138147;27;20035;-74
2021/03/02 04:49:49;;;;;;;41.95;19.05;;;;;;;0.88;81.39;102142.16;5102615;27;20023;-74
2021/03/02 04:52:17;;;;;;;39.80;18.17;;;;;;;0.90;81.14;102139.53;5137784;27;20023;-73
2021/03/02 04:54:42;;;;;;;36.70;17.33;;;;;;;0.96;80.90;102137.81;5138016;27;20550;-72
2021/03/02 04:57:08;;;;;;;45.35;19.55;;;;;;;0.84;80.92;102128.06;5137469;27;20027;-70
2021/03/02 04:59:33;;;;;;;43.25;18.58;;;;;;;0.83;80.92;102139.44;5119791;27;20528;-72
2021/03/02 05:01:58;;;;;;;43.38;20.08;;;;;;;0.82;81.04;102137.69;5119451;27;20085;-73
2021/03/02 05:04:24;;;;;;;50.45;23.08;;;;;;;0.81;81.35;102145.56;5119637;27;20027;-72
2021/03/02 05:06:49;;;;;;;52.80;23.08;;;;;;;0.74;81.63;102143.72;5138032;27;20106;-71
2021/03/02 05:09:15;;;;;;;53.63;23.35;;;;;;;0.73;81.84;102141.97;5137442;27;20473;-72
2021/03/02 05:11:40;;;;;;;54.85;24.23;;;;;;;0.72;82.16;102140.22;5137685;27;20440;-72
2021/03/02 05:14:06;;;;;;;52.25;23.52;;;;;;;0.66;82.54;102140.16;5137371;27;20031;-73
2021/03/02 05:16:31;;;;;;;45.72;22.30;;;;;;;0.65;82.50;102147.16;5137627;27;20054;-72
2021/03/02 05:18:56;;;;;;;42.60;19.27;;;;;;;0.66;83.00;102141.03;5137044;27;20049;-71
2021/03/02 05:21:22;;;;;;;42.92;18.60;;;;;;;0.66;82.90;102146.28;5119294;27;20027;-70
2021/03/02 05:23:47;;;;;;;39.47;17.98;;;;;;;0.67;83.05;102142.78;5101981;27;20486;-70
2021/03/02 05:26:13;;;;;;;36.35;16.58;;;;;;;0.70;83.16;102148.09;5137227;27;20049;-72
2021/03/02 05:28:38;;;;;;;35.78;16.55;;;;;;;0.80;83.57;102143.81;5137509;27;20023;-71
2021/03/02 05:31:04;;;;;;;30.63;15.57;;;;;;;0.81;83.32;102145.56;5118723;27;20054;-72
2021/03/02 05:33:29;;;;;;;33.65;15.20;;;;;;;0.84;83.57;102142.97;5118790;27;20054;-75
2021/03/02 05:35:55;;;;;;;31.65;14.05;;;;;;;0.90;82.96;102137.78;5118511;27;20034;-73
2021/03/02 05:38:20;;;;;;;34.08;14.00;;;;;;;0.78;83.03;102104.41;5119005;27;20023;-75
2021/03/02 05:40:46;;;;;;;26.67;12.82;;;;;;;1.00;82.50;102131.75;5137032;27;20427;-71
2021/03/02 05:43:11;;;;;;;30.17;13.10;;;;;;;1.03;83.05;102131.75;5118309;27;20019;-75
2021/03/02 05:45:37;;;;;;;33.25;15.30;;;;;;;1.07;83.13;102138.81;5118508;27;20027;-74
2021/03/02 05:48:09;;;;;;;39.60;16.38;;;;;;;1.03;82.56;102131.75;5136667;27;20050;-75
2021/03/02 05:50:34;;;;;;;31.65;15.48;;;;;;;1.05;82.55;102139.66;5118566;27;20423;-75
2021/03/02 05:53:03;;;;;;;35.38;15.10;;;;;;;1.07;82.65;102138.81;5136459;27;20031;-74
2021/03/02 05:55:30;;;;;;;31.55;13.73;;;;;;;1.09;82.30;102137.06;5136923;27;20041;-76
2021/03/02 05:57:56;;;;;;;32.47;15.20;;;;;;;1.13;82.51;102137.97;5118531;27;20047;-75
2021/03/02 06:00:23;;;;;;;36.78;17.50;;;;;;;1.17;82.46;102150.28;5118617;27;20465;-76
2021/03/02 06:02:48;;;;;;;35.90;16.33;;;;;;;1.18;82.00;102141.53;5118167;27;20035;-74
2021/03/02 06:05:14;;;;;;;31.27;14.50;;;;;;;1.29;81.90;102149.50;5136646;27;20041;-72
2021/03/02 06:07:40;;;;;;;30.10;14.07;;;;;;;1.37;82.16;102142.56;5136534;27;20459;-74
2021/03/02 06:10:06;;;;;;;32.75;14.52;;;;;;;1.47;81.60;102143.50;5136370;27;20034;-76
2021/03/02 06:12:58;;;;;;;32.17;14.40;;;;;;;1.55;81.63;102142.69;5136707;27;20114;-76
2021/03/02 06:15:28;;;;;;;27.77;12.93;;;;;;;1.69;80.75;102150.66;5118148;27;20393;-76
2021/03/02 06:18:15;;;;;;;32.60;13.68;;;;;;;1.88;80.36;102151.66;5118330;27;20047;-76
2021/03/02 06:20:42;;;;;;;32.80;12.95;;;;;;;1.94;80.46;102146.44;5136278;27;20022;-74
2021/03/02 06:23:31;;;;;;;30.80;12.95;;;;;;;2.05;79.98;102146.50;5136271;27;20027;-75
2021/03/02 06:26:15;;;;;;;33.17;13.20;;;;;;;2.10;80.11;102147.38;5117831;27;20474;-75
2021/03/02 06:28:43;;;;;;;30.73;13.57;;;;;;;2.23;79.62;102152.72;5136192;27;20039;-76
2021/03/02 06:31:45;;;;;;;26.50;13.25;;;;;;;2.29;79.43;102152.75;5135965;27;20458;-76
2021/03/02 06:34:20;;;;;;;30.58;12.93;;;;;;;2.36;79.27;102152.78;5110774;27;20027;-75
2021/03/02 06:36:54;;;;;;;30.60;13.90;;;;;;;2.45;78.69;102151.06;5117770;27;20027;-76
2021/03/02 06:39:28;;;;;;;31.35;13.90;;;;;;;2.52;78.71;102167.78;5135787;27;20034;-74
2021/03/02 06:42:23;;;;;;;36.33;14.77;;;;;;;2.52;78.61;102167.78;5135979;27;20418;-75
2021/03/02 06:44:51;;;;;;;29.63;13.63;;;;;;;2.64;78.19;102172.19;5132865;27;20035;-76
2021/03/02 06:47:40;;;;;;;33.80;15.38;;;;;;;2.66;77.56;102173.94;5117079;27;20023;-75
2021/03/02 06:50:12;;;;;;;32.05;14.38;;;;;;;2.69;77.83;102173.94;5135477;27;20110;-77
2021/03/02 06:52:42;;;;;;;31.98;14.93;;;;;;;2.80;77.68;102176.63;5135793;27;20023;-78
2021/03/02 06:55:17;;;;;;;38.67;16.33;;;;;;;2.82;77.59;102174.88;5117115;27;20023;-80
2021/03/02 06:57:46;;;;;;;35.97;15.32;;;;;;;3.00;77.47;102174.03;5135534;27;20055;-76
2021/03/02 07:00:13;;;;;;;35.35;14.80;;;;;;;3.11;76.88;102167.00;5135354;27;20030;-77
2021/03/02 07:02:44;;;;;;;31.75;14.68;;;;;;;3.21;75.94;102181.97;5123690;28;20106;-76
2021/03/02 07:05:17;;;;;;;32.88;14.13;;;;;;;3.32;76.19;102182.84;5140345;27;20027;-76
2021/03/02 07:07:43;;;;;;;;;;;;;;;3.51;75.88;102190.75;5135929;27;20076;-74
2021/03/02 07:10:11;;;;;;;35.10;13.45;;;;;;;3.76;74.86;102175.78;5116661;27;19922;-75
2021/03/02 07:12:39;;;;;;;35.65;15.57;;;;;;;3.82;74.20;102186.34;5117102;27;20031;-75
2021/03/02 07:15:07;;;;;;;34.60;14.60;;;;;;;3.75;74.44;102185.44;5135105;27;20102;-77
2021/03/02 07:17:36;;;;;;;39.78;15.25;;;;;;;3.83;74.95;102182.81;5116696;27;20031;-77
2021/03/02 07:20:05;;;;;;;41.55;15.43;;;;;;;3.97;75.19;102192.47;5135286;27;20019;-78
2021/03/02 07:22:32;;;;;;;41.03;15.15;;;;;;;4.01;74.41;102193.34;5135257;27;20023;-75
2021/03/02 07:25:01;;;;;;;36.47;14.25;;;;;;;4.07;74.51;102185.41;5135134;27;20031;-76
2021/03/02 07:27:30;;;;;;;30.10;13.70;;;;;;;4.14;74.43;102194.16;5134773;27;20026;-75
2021/03/02 07:29:59;;;;;;;29.52;13.60;;;;;;;4.15;74.28;102201.22;5134931;27;20026;-76
2021/03/02 07:32:25;;;;;;;32.58;13.70;;;;;;;4.35;73.59;102191.47;5134562;27;20076;-74
2021/03/02 07:34:52;;;;;;;38.00;14.70;;;;;;;4.38;73.37;102187.94;5134869;27;20046;-75
2021/03/02 07:37:22;;;;;;;32.53;13.27;;;;;;;4.54;73.17;102193.16;5134657;27;20023;-75
2021/03/02 07:40:01;;;;;;;38.47;13.20;;;;;;;4.53;73.15;102185.22;5134866;27;20031;-75
2021/03/02 07:42:27;;;;;;;29.85;13.35;;;;;;;4.65;72.83;102187.81;5134505;27;20054;-75
2021/03/02 07:45:10;;;;;;;31.17;12.98;;;;;;;4.75;72.19;102193.94;5116196;27;20393;-75
2021/03/02 07:47:46;;;;;;;;;;;;;;;4.79;71.61;102193.03;5116653;27;20049;-74
2021/03/02 07:50:28;;;;;;;28.90;12.40;;;;;;;4.80;71.59;102176.28;5134410;27;19911;-74
2021/03/02 07:53:22;;;;;;;34.33;12.77;;;;;;;4.99;71.35;102188.50;5100927;27;20038;-74
2021/03/02 07:56:23;;;;;;;27.65;13.02;;;;;;;5.07;70.99;102189.31;5134901;27;20465;-76
2021/03/02 07:59:10;;;;;;;28.23;12.13;;;;;;;5.09;70.92;102191.97;5134393;27;20058;-76
2021/03/02 08:01:36;;;;;;;30.92;13.27;;;;;;;5.09;70.93;102178.72;5134313;27;20046;-76
2021/03/02 08:04:14;;;;;;;30.83;12.63;;;;;;;5.25;70.59;102185.69;5134463;27;20055;-76
2021/03/02 08:06:41;;;;;;;34.13;13.77;;;;;;;5.24;70.67;102186.56;5134353;27;20038;-76
2021/03/02 08:09:25;;;;;;;30.15;13.93;;;;;;;5.30;70.89;102190.91;5098843;27;20478;-82
2021/03/02 08:11:50;;;;;;;;;;;;;;;5.36;70.62;102183.81;5134782;27;20038;-81
2021/03/02 08:14:16;;;;;;;35.72;12.65;;;;;;;5.40;70.46;102174.06;5133959;27;19908;-75
2021/03/02 08:16:55;;;;;;;33.60;13.70;;;;;;;5.29;70.82;102176.81;5133388;27;20053;-75
2021/03/02 08:19:37;;;;;;;30.85;13.30;;;;;;;5.38;70.47;102173.22;5133140;27;20481;-74
2021/03/02 08:22:25;;;;;;;32.70;13.43;;;;;;;5.35;70.41;102173.25;5133818;27;20027;-75
2021/03/02 08:24:54;;;;;;;28.58;12.60;;;;;;;5.36;70.92;102177.66;5133848;27;20026;-75
2021/03/02 08:27:40;;;;;;;27.90;13.05;;;;;;;5.50;70.31;102180.16;5133533;27;20091;-75
2021/03/02 08:30:13;;;;;;;30.27;13.10;;;;;;;5.64;69.68;102171.22;5133863;27;20034;-75
2021/03/02 08:32:43;;;;;;;27.20;12.20;;;;;;;5.77;69.26;102171.97;5133876;27;20027;-75
2021/03/02 08:35:20;;;;;;;30.35;13.23;;;;;;;5.78;69.39;102171.09;5133639;27;20030;-76
2021/03/02 08:37:48;;;;;;;28.45;13.48;;;;;;;5.72;69.43;102169.41;5133806;27;20034;-75
2021/03/02 08:40:25;;;;;;;31.00;12.73;;;;;;;5.92;68.95;102163.06;5133487;28;20015;-74
2021/03/02 08:43:11;;;;;;;27.33;13.18;;;;;;;6.01;68.57;102155.00;5134015;28;20067;-76
2021/03/02 08:45:55;;;;;;;27.35;12.65;;;;;;;6.13;68.19;102162.81;5115329;28;20096;-74
2021/03/02 08:48:24;;;;;;;28.75;13.05;;;;;;;6.19;68.02;102159.22;5133522;27;20031;-76
2021/03/02 08:50:55;;;;;;;26.60;12.98;;;;;;;6.26;67.72;102158.22;5133815;27;20042;-75
2021/03/02 08:53:34;;;;;;;31.55;13.27;;;;;;;6.44;67.23;102154.47;5114995;28;20122;-75
2021/03/02 08:56:03;;;;;;;27.30;12.50;;;;;;;6.41;67.13;102146.56;5115149;28;20031;-75
2021/03/02 08:58:40;;;;;;;27.40;13.38;;;;;;;6.43;67.15;102160.69;5114667;28;20051;-75
2021/03/02 09:01:09;;;;;;;32.22;13.32;;;;;;;6.55;66.59;102150.78;5133593;28;20031;-75
2021/03/02 09:03:37;;;;;;;32.83;13.10;;;;;;;6.59;66.53;102146.34;5133524;28;20506;-75
2021/03/02 09:06:13;;;;;;;27.60;13.73;;;;;;;6.63;65.97;102141.84;5115094;28;20035;-75
2021/03/02 09:08:49;;;;;;;25.38;13.00;;;;;;;6.77;65.73;102137.25;5133726;28;20019;-76
2021/03/02 09:11:40;;;;;;;25.10;13.00;;;;;;;6.89;65.36;102135.28;5133315;28;20106;-76
2021/03/02 09:14:17;;;;;;;27.05;13.25;;;;;;;6.96;65.19;102141.38;5133537;28;20020;-75
2021/03/02 09:17:02;;;;;;;25.30;13.35;;;;;;;6.88;64.72;102133.53;5134261;28;20503;-75
2021/03/02 09:19:35;;;;;;;29.10;12.55;;;;;;;7.09;65.12;102132.31;5118629;28;20019;-75
2021/03/02 09:22:10;;;;;;;27.40;13.13;;;;;;;7.17;64.20;102133.06;5102389;28;20056;-75
2021/03/02 09:24:42;;;;;;;26.13;13.70;;;;;;;7.11;64.77;102134.94;5139514;28;20267;-76
2021/03/02 09:27:09;;;;;;;27.20;12.20;;;;;;;6.95;64.29;102077.69;5139253;27;20338;-75
2021/03/02 09:29:41;;;;;;;27.50;13.82;;;;;;;7.22;63.76;102125.03;5139388;27;20271;-75
2021/03/02 09:32:08;;;;;;;27.27;12.68;;;;;;;7.44;63.79;102128.22;5142623;27;20048;-75
2021/03/02 09:34:35;;;;;;;23.58;12.52;;;;;;;7.46;63.77;102132.59;5136888;27;20026;-75
2021/03/02 09:37:09;;;;;;;28.08;12.57;;;;;;;7.28;63.83;102122.28;5147931;27;20033;-74
2021/03/02 09:39:36;;;;;;;25.75;13.52;;;;;;;7.24;64.08;102131.22;5144890;27;20019;-75
2021/03/02 09:42:23;;;;;;;29.45;13.45;;;;;;;7.36;64.10;102130.13;5137956;27;20031;-75
2021/03/02 09:44:53;;;;;;;25.63;12.70;;;;;;;7.38;63.30;102118.56;5118937;27;20035;-74
2021/03/02 09:47:33;;;;;;;25.70;13.27;;;;;;;7.57;63.20;102128.88;5136718;27;20123;-74
2021/03/02 09:50:16;;;;;;;23.92;12.57;;;;;;;7.64;63.19;102131.38;5118182;27;20054;-75
2021/03/02 09:52:46;;;;;;;28.23;13.20;;;;;;;7.77;62.25;102116.09;5137034;27;20035;-75
2021/03/02 09:55:15;;;;;;;30.75;14.15;;;;;;;7.79;62.72;102119.59;5136709;27;20027;-75
2021/03/02 09:58:07;;;;;;;27.30;13.95;;;;;;;7.91;62.46;102119.38;5136761;27;20070;-75
2021/03/02 10:00:45;;;;;;;29.05;14.43;;;;;;;8.07;61.59;102124.38;5136552;27;20031;-74
2021/03/02 10:03:12;;;;;;;29.95;13.60;;;;;;;8.09;61.81;102122.53;5136589;27;20051;-73
2021/03/02 10:05:57;;;;;;;29.48;13.77;;;;;;;8.09;61.43;102122.53;5117833;27;20117;-74
2021/03/02 10:08:48;;;;;;;29.17;14.20;;;;;;;8.08;62.07;102124.31;5120937;27;20033;-73
2021/03/02 10:11:14;;;;;;;28.77;14.18;;;;;;;7.99;62.13;102121.84;5134708;27;20058;-73
2021/03/02 10:13:45;;;;;;;30.58;14.10;;;;;;;8.21;61.42;102117.88;5137764;27;20019;-74
2021/03/02 10:16:18;;;;;;;30.23;14.80;;;;;;;8.25;61.67;102122.22;5136205;27;20031;-75
2021/03/02 10:19:06;;;;;;;29.23;14.43;;;;;;;8.25;61.10;102116.00;5136049;27;20023;-74
2021/03/02 10:21:40;;;;;;;29.95;14.73;;;;;;;8.39;60.47;102108.63;5135785;27;20031;-75
2021/03/02 10:24:06;;;;;;;31.17;14.45;;;;;;;8.48;60.80;102105.78;5135993;27;20031;-74
2021/03/02 10:26:34;;;;;;;32.22;14.63;;;;;;;8.56;60.31;102109.16;5135769;27;20038;-74
2021/03/02 10:29:00;;;;;;;31.52;14.75;;;;;;;8.73;60.66;102110.56;5135944;27;20102;-74
2021/03/02 10:31:27;;;;;;;29.95;15.68;;;;;;;8.79;58.86;102110.44;5135578;27;20485;-75
2021/03/02 10:33:53;;;;;;;33.95;15.70;;;;;;;8.81;59.10;102112.13;5135868;27;20059;-73
2021/03/02 10:36:24;;;;;;;30.40;15.23;;;;;;;8.76;59.17;102107.81;5135656;27;20118;-74
2021/03/02 10:38:51;;;;;;;34.00;16.05;;;;;;;8.80;59.29;102096.22;5134475;27;20015;-75
2021/03/02 10:41:19;;;;;;;30.38;15.45;;;;;;;9.07;58.86;102090.22;5117362;27;20027;-78
2021/03/02 10:43:45;;;;;;;31.40;13.63;;;;;;;9.51;57.09;102080.19;5135669;27;20385;-75
2021/03/02 10:46:10;;;;;;;28.27;14.40;;;;;;;9.51;56.46;102088.19;5135471;27;20019;-75
2021/03/02 10:48:37;;;;;;;31.45;14.73;;;;;;;9.23;57.52;102084.50;5135090;27;20031;-75
2021/03/02 10:51:03;;;;;;;25.67;12.98;;;;;;;9.36;56.79;102086.81;5117232;27;20392;-74
2021/03/02 10:53:29;;;;;;;27.88;13.70;;;;;;;9.53;56.36;102083.69;5116878;27;20033;-75
2021/03/02 10:55:54;;;;;;;30.98;14.15;;;;;;;9.52;56.64;102083.75;5117111;27;20125;-75
2021/03/02 10:58:20;;;;;;;31.15;15.57;;;;;;;9.63;55.50;102058.56;5135053;27;20047;-75
2021/03/02 11:00:45;;;;;;;33.17;14.38;;;;;;;9.64;55.79;102075.41;5099922;27;20472;-74
2021/03/02 11:03:11;;;;;;;31.23;14.27;;;;;;;9.59;55.77;102072.00;5135334;27;20019;-74
2021/03/02 11:05:36;;;;;;;24.40;12.18;;;;;;;9.77;54.42;102068.84;5134957;27;20373;-74
2021/03/02 11:08:02;;;;;;;25.30;13.43;;;;;;;9.97;53.91;102060.28;5135092;27;20027;-74
2021/03/02 11:10:28;;;;;;;25.27;13.13;;;;;;;9.65;54.35;102056.75;5134683;27;20023;-74
2021/03/02 11:12:53;;;;;;;25.90;13.80;;;;;;;9.83;54.96;102065.13;5116740;27;20047;-74
2021/03/02 11:15:19;;;;;;;25.83;13.57;;;;;;;9.93;53.92;102067.47;5134927;27;20397;-74
2021/03/02 11:17:44;;;;;;;27.92;13.30;;;;;;;10.36;53.21;102055.59;5134719;27;20054;-75
2021/03/02 11:20:10;;;;;;;25.10;13.63;;;;;;;10.55;52.36;102051.41;5134890;27;20015;-74
2021/03/02 11:22:35;;;;;;;26.45;12.23;;;;;;;10.52;51.81;102051.53;5134438;27;20035;-74
2021/03/02 11:25:01;;;;;;;25.90;13.05;;;;;;;10.50;52.23;102052.47;5116492;27;20485;-75
2021/03/02 11:27:26;;;;;;;24.85;13.82;;;;;;;10.39;52.58;102046.59;5134472;27;20493;-74
2021/03/02 11:29:52;;;;;;;24.65;13.52;;;;;;;10.25;53.19;102036.38;5116250;27;20114;-75